• Join FlightAware (Why Join?)
  • Login
  • US Flag 
08:48AM EDT


 

Airport Tracker/Info


-or-


 

Live Flight TrackerFlight Track Log ✈ SKW5631 ✈ 23-Apr-2013 ✈ KAUS - KSFO

Flight Track Log - Related Links

Times and Time Zones

All times are in EDT time to prevent confusion due to time zone crossing. See the SKW5631 flight status page for this flight to view local times or setup timezone preferences in your user account.

Time Position Orientation Groundspeed Altitude Reporting Facility
EDT Latitude Longitude Course Direction KTS MPH feet Rate Location/Type
03:50PM 30.4009 -97.7435 276° West  Level FlightAware Approximate
03:50PM 30.3750 -97.7392 279° West 274 315 5,300  Level Houston Center
03:51PM 30.4113 -97.8680 276° West  Level FlightAware Approximate
03:51PM 30.3819 -97.8244 275° West 263 303 8,000  Level Houston Center
03:52PM 30.4167 -97.9928 270° West  Level FlightAware Approximate
03:52PM 30.3919 -97.9161 277° West 276 318 9,900  Level Houston Center
03:53PM 30.4293 -98.1168 278° West  Level FlightAware Approximate
03:53PM 30.4028 -98.0156 277° West 302 348 11,600  Level Houston Center
03:54PM 30.4447 -98.2406 278° West  Level FlightAware Approximate
03:54PM 30.4094 -98.1200 274° West 319 367 12,700  Level Houston Center
03:55PM 30.4616 -98.3642 279° West  Level FlightAware Approximate
03:55PM 30.4189 -98.2422 275° West 323 372 15,200  Level Houston Center
03:56PM 30.4256 -98.3481 274° West 324 373 17,200 1,980 Climbing Houston Center
03:57PM 30.4378 -98.4536 278° West 326 375 19,300 1,800 Climbing Houston Center
03:58PM 30.4508 -98.5611 278° West 333 383 21,000 1,620 Climbing Houston Center
03:59PM 30.4647 -98.6703 278° West 338 389 22,700 1,440 Climbing Houston Center
04:00PM 30.4783 -98.7819 278° West 345 397 24,000 1,320 Climbing Houston Center
04:01PM 30.4928 -98.8989 278° West 359 413 25,500 1,440 Climbing Houston Center
04:02PM 30.5092 -99.0331 278° West 357 411 27,100 1,200 Climbing Houston Center
04:03PM 30.5211 -99.1342 278° West 362 417 28,000 1,080 Climbing Houston Center
04:04PM 30.5378 -99.2725 278° West 362 417 29,400 1,140 Climbing Houston Center
04:05PM 30.5522 -99.3894 278° West 367 422 30,400 900 Climbing Houston Center
04:06PM 30.5647 -99.5069 277° West 369 425 31,300 840 Climbing Houston Center
04:07PM 30.5783 -99.6233 278° West 366 421 32,200 840 Climbing Houston Center
04:08PM 30.5911 -99.7389 277° West 363 418 33,100 900 Climbing Houston Center
04:09PM 30.6056 -99.8783 277° West 365 420 34,100 960 Climbing Houston Center
04:10PM 30.6206 -99.9917 279° West 356 410 35,200 840 Climbing Houston Center
04:11PM 30.6342 -100.1042 278° West 356 410 35,900 360 Climbing Houston Center
04:12PM 30.6486 -100.2172 278° West 358 412 36,000  Climbing Houston Center
04:13PM 30.6628 -100.3350 278° West 371 427 36,000  Level Houston Center
04:14PM 30.6803 -100.4772 278° West 376 433 36,000  Level Houston Center
04:16PM 30.6947 -100.5997 278° West 382 440 36,000  Level Houston Center
04:17PM 30.7083 -100.7225 277° West 384 442 36,000  Level Houston Center
04:18PM 30.7222 -100.8467 277° West 390 449 36,000  Level Houston Center
04:19PM 30.7358 -100.9681 277° West 383 441 36,000  Level Houston Center
04:20PM 30.7533 -101.1128 278° West 380 437 36,000  Level Houston Center
04:21PM 30.7683 -101.2308 278° West 374 430 36,000 240 Level Houston Center
04:22PM 30.7814 -101.3517 277° West 377 434 36,500 480 Climbing Houston Center
04:23PM 30.7933 -101.4739 277° West 380 437 37,000 480 Climbing Houston Center
04:24PM 30.8064 -101.5928 277° West 373 429 37,500 420 Climbing Houston Center
04:25PM 30.8181 -101.6978 277° West 372 428 37,900 120 Climbing Albuquerque Center
04:27PM 30.8469 -101.9617 277° West 369 425 38,000  Climbing Houston Center
04:28PM 30.8594 -102.0814 277° West 371 427 38,000  Level Houston Center
04:29PM 30.8714 -102.1997 277° West 372 428 38,000  Level Albuquerque Center
04:30PM 30.8847 -102.3208 277° West 373 429 38,000  Level Albuquerque Center
04:31PM 30.8969 -102.4400 277° West 371 427 38,000  Level Albuquerque Center
04:32PM 30.9094 -102.5578 277° West 368 423 38,000  Level Albuquerque Center
04:33PM 30.9206 -102.6750 276° West 365 420 38,000  Level Albuquerque Center
04:34PM 30.9333 -102.7933 277° West 365 420 38,000  Level Albuquerque Center
04:35PM 30.9447 -102.9089 277° West 363 418 38,000  Level Albuquerque Center
04:36PM 30.9714 -103.0472 283° West 365 420 38,000  Level Albuquerque Center
04:37PM 31.0022 -103.1583 288° West 364 419 38,000  Level Albuquerque Center
04:38PM 31.0339 -103.2725 288° West 367 422 38,000  Level Albuquerque Center
04:39PM 31.0650 -103.3847 288° West 365 420 38,000  Level Albuquerque Center
04:40PM 31.0947 -103.4975 287° West 365 420 38,000  Level Albuquerque Center
04:41PM 31.1253 -103.6100 288° West 364 419 38,000  Level Albuquerque Center
04:42PM 31.1558 -103.7222 288° West 364 419 38,000  Level Albuquerque Center
04:43PM 31.1914 -103.8544 287° West 366 421 38,000  Level Albuquerque Center
04:44PM 31.2211 -103.9672 287° West 366 421 38,000  Level Albuquerque Center
04:45PM 31.2522 -104.0803 288° West 367 422 38,000  Level Albuquerque Center
04:46PM 31.2833 -104.1942 288° West 369 425 38,000  Level Albuquerque Center
04:47PM 31.3128 -104.3089 287° West 371 427 38,000  Level Albuquerque Center
04:48PM 31.3497 -104.4469 287° West 373 429 38,000  Level Albuquerque Center
04:49PM 31.3800 -104.5622 287° West 373 429 38,000  Level Albuquerque Center
04:50PM 31.4111 -104.6783 287° West 375 432 38,000  Level Albuquerque Center
04:51PM 31.4411 -104.7933 287° West 374 430 38,000  Level Albuquerque Center
04:53PM 31.4711 -104.9081 287° West 373 429 38,000  Level Albuquerque Center
04:54PM 31.4997 -105.0242 286° West 374 430 38,000  Level Albuquerque Center
04:55PM 31.5364 -105.1639 287° West 376 433 38,000  Level Albuquerque Center
04:56PM 31.5669 -105.2803 287° West 377 434 38,000  Level Albuquerque Center
04:57PM 31.5950 -105.4003 285° West 382 440 38,000  Level Albuquerque Center
04:58PM 31.6247 -105.5183 286° West 380 437 38,000  Level Albuquerque Center
04:59PM 31.6550 -105.6361 287° West 378 435 38,000  Level Albuquerque Center
05:00PM 31.6897 -105.7778 286° West 379 436 38,000  Level Albuquerque Center
05:01PM 31.7200 -105.8969 287° West 381 438 38,000  Level Albuquerque Center
05:02PM 31.7503 -106.0161 287° West 383 441 38,000  Level Albuquerque Center
05:03PM 31.7800 -106.1328 287° West 376 433 38,000  Level Albuquerque Center
05:04PM 31.8100 -106.2500 287° West 375 432 38,000  Level Albuquerque Center
05:05PM 31.8247 -106.3672 278° West 369 425 38,000  Level Albuquerque Center
05:06PM 31.8453 -106.5125 279° West 374 430 38,000  Level Albuquerque Center
05:07PM 31.8733 -106.6253 286° West 367 422 38,000  Level Albuquerque Center
05:08PM 31.8978 -106.7394 284° West 362 417 38,000  Level Albuquerque Center
05:09PM 31.9203 -106.8547 283° West 362 417 38,000  Level Albuquerque Center
05:10PM 31.9439 -106.9686 284° West 359 413 38,000  Level Albuquerque Center
05:11PM 31.9672 -107.0842 283° West 361 415 38,000  Level Albuquerque Center
05:12PM 31.9894 -107.1981 283° West 358 412 38,000  Level Albuquerque Center
05:13PM 32.0128 -107.3142 283° West 360 414 38,000  Level Albuquerque Center
05:14PM 32.0397 -107.4531 283° West 360 414 38,000  Level Albuquerque Center
05:15PM 32.0622 -107.5708 283° West 365 420 38,000  Level Albuquerque Center
05:16PM 32.0856 -107.6867 283° West 363 418 38,000  Level Albuquerque Center
05:17PM 32.1078 -107.8022 283° West 363 418 38,000  Level Albuquerque Center
05:18PM 32.1308 -107.9200 283° West 366 421 38,000  Level Albuquerque Center
05:19PM 32.1533 -108.0372 283° West 367 422 38,000  Level Albuquerque Center
05:20PM 32.1764 -108.1528 283° West 363 418 38,000  Level Albuquerque Center
05:21PM 32.2033 -108.2944 283° West 367 422 38,000  Level Albuquerque Center
05:22PM 32.2250 -108.4133 282° West 370 426 38,000  Level Albuquerque Center
05:23PM 32.2467 -108.5217 283° West 369 425 38,000  Level Albuquerque Center
05:24PM 32.2686 -108.6403 282° West 371 427 38,000  Level Albuquerque Center
05:26PM 32.2947 -108.7822 282° West 371 427 38,000  Level Albuquerque Center
05:27PM 32.3164 -108.9003 282° West 370 426 38,000  Level Albuquerque Center
05:28PM 32.3375 -109.0192 282° West 371 427 38,000  Level Albuquerque Center
05:29PM 32.3594 -109.1378 282° West 371 427 38,000  Level Albuquerque Center
05:30PM 32.3814 -109.2572 282° West 372 428 38,000  Level Albuquerque Center
05:31PM 32.4081 -109.3994 283° West 371 427 38,000  Level Albuquerque Center
05:32PM 32.4294 -109.5181 282° West 371 427 38,000  Level Albuquerque Center
05:33PM 32.4500 -109.6372 282° West 372 428 38,100  Climbing Albuquerque Center
05:34PM 32.4711 -109.7564 282° West 372 428 38,000 -60 Descending Albuquerque Center
05:35PM 32.4944 -109.8781 283° West 376 433 38,000  Level Albuquerque Center
05:36PM 32.5164 -109.9989 282° West 377 434 38,000  Level Albuquerque Center
05:37PM 32.5414 -110.1444 282° West 379 436 38,000  Level Albuquerque Center
05:38PM 32.5636 -110.2653 282° West 378 435 38,000  Level Albuquerque Center
05:39PM 32.5858 -110.3908 282° West 383 441 38,000  Level Albuquerque Center
05:40PM 32.6064 -110.5153 281° West 385 443 38,000  Level Albuquerque Center
05:41PM 32.6286 -110.6394 282° West 385 443 38,000  Level Albuquerque Center
05:42PM 32.6492 -110.7636 281° West 384 442 38,000  Level Albuquerque Center
05:43PM 32.6708 -110.8886 282° West 386 444 38,000  Level Albuquerque Center
05:44PM 32.7183 -111.0319 292° West 389 448 38,000  Level Albuquerque Center
05:45PM 32.7617 -111.1503 294° West 392 451 38,000  Level Albuquerque Center
05:46PM 32.8044 -111.2675 293° West 388 447 38,000  Level Albuquerque Center
05:47PM 32.8478 -111.3833 294° West 384 442 38,000  Level Albuquerque Center
05:48PM 32.8886 -111.5011 292° West 385 443 38,000  Level Albuquerque Center
05:49PM 32.9317 -111.6186 294° West 387 445 38,000  Level Albuquerque Center
05:50PM 32.9808 -111.7603 293° West 386 444 38,000  Level Albuquerque Center
05:51PM 33.0222 -111.8781 293° West 385 443 38,000  Level Albuquerque Center
05:52PM 33.0639 -111.9958 293° West 385 443 38,000  Level Albuquerque Center
05:53PM 33.1047 -112.1133 293° West 384 442 38,000  Level Albuquerque Center
05:54PM 33.1467 -112.2308 293° West 385 443 38,000  Level Albuquerque Center
05:55PM 33.1875 -112.3492 292° West 385 443 38,000  Level Albuquerque Center
05:56PM 33.2283 -112.4669 293° West 384 442 38,000  Level Albuquerque Center
05:58PM 33.2689 -112.5850 292° West 384 442 38,000  Level Albuquerque Center
05:59PM 33.3189 -112.7286 293° West 381 438 38,000  Level Albuquerque Center
06:00PM 33.3586 -112.8461 292° West 382 440 38,000  Level Albuquerque Center
06:01PM 33.4000 -112.9631 293° West 383 441 38,000  Level Albuquerque Center
06:02PM 33.4394 -113.0794 292° West 381 438 38,000  Level Albuquerque Center
06:03PM 33.4786 -113.1967 292° West 381 438 38,000  Level Albuquerque Center
06:04PM 33.5181 -113.3142 292° West 381 438 38,000  Level Albuquerque Center
06:05PM 33.5661 -113.4547 292° West 381 438 38,000  Level Albuquerque Center
06:06PM 33.5975 -113.5739 288° West 378 435 38,000  Level Albuquerque Center
06:07PM 33.6186 -113.6992 281° West 380 437 38,000  Level Albuquerque Center
06:08PM 33.6431 -113.8225 283° West 380 437 38,000  Level Albuquerque Center
06:09PM 33.6658 -113.9461 283° West 380 437 38,000  Level Albuquerque Center
06:10PM 33.6886 -114.0703 282° West 382 440 38,000  Level Albuquerque Center
06:11PM 33.7167 -114.2181 283° West 383 441 38,000  Level Albuquerque Center
06:12PM 33.7381 -114.3428 282° West 382 440 38,000  Level Albuquerque Center
06:12PM 33.7450 -114.3797 283° West 383 441 38,000  Level Los Angeles Center
06:13PM 33.7719 -114.5303 282° West 385 443 38,000  Level Los Angeles Center
06:14PM 33.7806 -114.6578 275° West 385 443 38,000  Level Los Angeles Center
06:15PM 33.7883 -114.7875 274° West 389 448 38,000  Level Los Angeles Center
06:16PM 33.7964 -114.9156 274° West 387 445 38,000  Level Los Angeles Center
06:18PM 33.8031 -115.0436 274° West 388 447 38,000  Level Los Angeles Center
06:19PM 33.8097 -115.1717 274° West 387 445 38,000  Level Los Angeles Center
06:20PM 33.8178 -115.3253 274° West 384 442 38,000  Level Los Angeles Center
06:21PM 33.8269 -115.4542 275° West 388 447 38,000  Level Los Angeles Center
06:22PM 33.8642 -115.5772 290° West 394 453 38,000  Level Los Angeles Center
06:23PM 33.9025 -115.6986 291° West 391 450 38,000  Level Los Angeles Center
06:24PM 33.9417 -115.8194 291° West 391 450 38,000  Level Los Angeles Center
06:25PM 33.9875 -115.9628 291° West 384 442 38,000  Level Los Angeles Center
06:26PM 34.0267 -116.0839 291° West 387 445 38,000  Level Los Angeles Center
06:27PM 34.0633 -116.2047 290° West 386 444 38,000  Level Los Angeles Center
06:28PM 34.1028 -116.3250 292° West 387 445 38,000  Level Los Angeles Center
06:29PM 34.1428 -116.4581 290° West 390 449 38,000  Level Los Angeles Center
06:30PM 34.1983 -116.5683 301° West 394 453 38,000  Level Los Angeles Center
06:31PM 34.2750 -116.6650 314° West 398 458 38,000  Level Los Angeles Center
06:32PM 34.3342 -116.7747 303° West 397 457 38,000  Level Los Angeles Center
06:33PM 34.3636 -116.9006 286° West 388 447 38,000  Level Los Angeles Center
06:34PM 34.3989 -117.0519 286° West 389 448 38,000  Level Los Angeles Center
06:35PM 34.4281 -117.1800 285° West 392 451 38,000  Level Los Angeles Center
06:36PM 34.4581 -117.3072 286° West 392 451 38,000  Level Los Angeles Center
06:37PM 34.4869 -117.4367 285° West 395 455 38,000  Level Los Angeles Center
06:38PM 34.5175 -117.5664 286° West 399 459 38,000  Level Los Angeles Center
06:39PM 34.5469 -117.6953 286° West 396 456 38,000  Level Los Angeles Center
06:40PM 34.5828 -117.8519 286° West 401 461 38,000  Level Los Angeles Center
06:41PM 34.6114 -117.9828 285° West 400 460 38,000  Level Los Angeles Center
06:42PM 34.6608 -118.1067 296° West 409 471 38,000  Level Los Angeles Center
06:43PM 34.7347 -118.2144 310° West 413 475 38,000  Level Los Angeles Center
06:44PM 34.8086 -118.3208 310° West 410 472 38,000  Level Los Angeles Center
06:45PM 34.8828 -118.4272 310° West 411 473 38,000  Level Los Angeles Center
06:47PM 34.9483 -118.5531 302° West 411 473 38,000  Level Los Angeles Center
06:48PM 34.9992 -118.6775 297° West 410 472 38,000  Level Los Angeles Center
06:49PM 35.0625 -118.8267 297° West 417 480 38,000  Level Los Angeles Center
06:50PM 35.1150 -118.9531 297° West 420 483 38,000  Level Los Angeles Center
06:51PM 35.1664 -119.0775 297° West 414 476 38,000  Level Los Angeles Center
06:52PM 35.2208 -119.2028 298° West 419 482 38,000  Level Los Angeles Center
06:53PM 35.2725 -119.3306 296° West 421 484 38,000  Level Los Angeles Center
06:54PM 35.3239 -119.4589 296° West 422 486 38,000  Level Los Angeles Center
06:55PM 35.3875 -119.6119 297° West 423 487 38,000  Level Los Angeles Center
06:56PM 35.4389 -119.7406 296° West 423 487 38,000  Level Los Angeles Center
06:57PM 35.4881 -119.8669 296° West 424 488 38,000  Level Oakland Center
06:58PM 35.5403 -119.9967 296° West 426 490 38,000  Level Oakland Center
06:59PM 35.5919 -120.1258 296° West 428 493 38,000  Level Oakland Center
07:00PM 35.6550 -120.2822 296° West 432 497 38,000  Level Oakland Center
07:01PM 35.7061 -120.4128 296° West 431 496 38,000  Level Oakland Center
07:02PM 35.7575 -120.5450 296° West 432 497 38,000  Level Oakland Center
07:03PM 35.8103 -120.6769 296° West 433 498 38,000  Level Oakland Center
07:04PM 35.8628 -120.8111 296° West 437 503 38,000  Level Oakland Center
07:05PM 35.9150 -120.9442 296° West 435 501 38,000  Level Oakland Center
07:06PM 35.9661 -121.0806 295° West 438 504 38,000  Level Oakland Center
07:07PM 36.0322 -121.2042 304° West 440 506 38,000 -1,080 Level Oakland Center
07:08PM 36.1450 -121.3219 320° Northwest 443 510 35,900 -2,400 Descending Oakland Center
07:09PM 36.2392 -121.4183 320° Northwest 437 503 33,100 -2,760 Descending Oakland Center
07:10PM 36.3286 -121.5139 319° Northwest 426 490 30,300 -2,760 Descending Oakland Center
07:11PM 36.4181 -121.6092 319° Northwest 424 488 27,500 -2,760 Descending Oakland Center
07:12PM 36.5081 -121.7069 319° Northwest 427 491 24,700 -2,880 Descending Oakland Center
07:13PM 36.5833 -121.7833 321° Northwest 425 489 22,300 -2,940 Descending Northern Cal TRACON
07:14PM 36.6667 -121.8833 316° Northwest 414 476 19,500 -2,820 Descending Northern Cal TRACON
07:15PM 36.7667 -121.9667 326° Northwest 399 459 16,700 -2,820 Descending Northern Cal TRACON
07:16PM 36.8667 -122.0000 345° North 388 447 13,900 -2,820 Descending Northern Cal TRACON
07:16PM 36.8936 -122.0006 359° North 386 444 13,200 -960 Descending Oakland Center
07:17PM 36.9922 -122.0278 348° North 366 421 12,700 -960 Descending Oakland Center
07:18PM 37.0803 -122.0514 348° North 328 377 11,300 -1,380 Descending Oakland Center
07:19PM 37.1608 -122.0717 349° North 300 345 9,900 -1,380 Descending Oakland Center
07:20PM 37.2386 -122.0908 349° North 288 331 8,600 -1,320 Descending Oakland Center
07:21PM 37.3139 -122.1117 348° North 280 322 7,300 -1,320 Descending Oakland Center
07:22PM 37.3897 -122.1322 348° North 280 322 6,000 -1,140 Descending Oakland Center
07:23PM 37.4681 -122.1536 348° North 246 283 5,000 -1,080 Descending Oakland Center
07:24PM 37.5161 -122.1681 347° North 194 223 3,900 -1,080 Descending Oakland Center